Time;durP1;ratioP1;P1;durP2;ratioP2;P2;SDS_P1;SDS_P2;PMS_P1;PMS_P2;Temp;Humidity;BMP_temperature;BMP_pressure;BME280_temperature;BME280_humidity;BME280_pressure;Samples;Min_cycle;Max_cycle;Signal;HPM_P1;HPM_P2
2022/12/08 00:00:51;;;;;;;8.68;5.90;;;;;;;14.03;45.68;92775.59;5014509;28;20053;-88
2022/12/08 00:03:16;;;;;;;7.38;5.50;;;;;;;14.02;45.57;92779.53;5031568;28;20041;-88
2022/12/08 00:11:13;;;;;;;7.82;5.15;;;;;;;14.03;45.53;92772.13;5020068;28;20148;-88
2022/12/08 00:13:39;;;;;;;7.88;4.90;;;;;;;14.05;45.35;92778.56;5011993;28;20483;-89
2022/12/08 00:16:04;;;;;;;7.30;5.18;;;;;;;14.03;45.48;92772.13;5010968;28;20045;-88
2022/12/08 00:18:30;;;;;;;9.15;5.05;;;;;;;14.00;45.59;92771.16;5018838;28;20039;-89
2022/12/08 00:20:56;;;;;;;7.82;5.20;;;;;;;14.01;45.42;92763.75;5013984;28;20411;-88
2022/12/08 00:23:21;;;;;;;6.88;5.10;;;;;;;14.03;45.34;92753.13;5010809;28;20128;-87
2022/12/08 00:25:46;;;;;;;8.60;5.22;;;;;;;14.02;45.50;92759.78;5028078;28;20041;-89
2022/12/08 00:28:12;;;;;;;6.13;4.90;;;;;;;14.04;45.66;92754.59;5010993;28;20420;-89
2022/12/08 00:30:39;;;;;;;6.45;4.55;;;;;;;14.02;45.37;92759.78;5011268;28;20033;-88
2022/12/08 00:33:04;;;;;;;7.43;4.75;;;;;;;13.99;45.73;92749.91;4995161;28;20395;-88
2022/12/08 00:35:30;;;;;;;7.57;4.70;;;;;;;14.03;45.70;92753.13;5025805;28;20030;-88
2022/12/08 00:37:55;;;;;;;5.35;4.50;;;;;;;14.00;45.27;92743.97;5034081;28;20070;-88
2022/12/08 00:40:20;;;;;;;8.10;4.93;;;;;;;14.03;45.35;92745.69;5038475;28;20048;-88
2022/12/08 00:42:46;;;;;;;7.88;5.00;;;;;;;14.03;45.49;92756.56;5020174;28;20553;-88
2022/12/08 00:45:11;;;;;;;6.65;4.60;;;;;;;14.01;45.33;92759.03;5039102;28;20048;-88
2022/12/08 00:47:37;;;;;;;6.10;4.07;;;;;;;14.01;45.38;92755.59;5014287;28;20040;-89
2022/12/08 00:50:02;;;;;;;6.38;5.00;;;;;;;14.03;45.57;92750.41;5026512;28;20515;-87
2022/12/08 00:52:28;;;;;;;5.72;4.22;;;;;;;14.01;45.69;92750.91;5010033;28;20033;-88
2022/12/08 00:54:53;;;;;;;6.50;4.65;;;;;;;14.00;45.26;92754.84;5018875;28;20079;-88
2022/12/08 00:57:19;;;;;;;7.28;4.72;;;;;;;13.99;45.38;92749.91;5030578;28;20044;-87
2022/12/08 00:59:44;;;;;;;6.35;4.25;;;;;;;13.99;45.29;92747.19;5030318;28;20049;-88
2022/12/08 01:02:09;;;;;;;6.40;4.80;;;;;;;14.03;45.35;92751.13;5013696;28;20044;-88
2022/12/08 01:04:35;;;;;;;5.68;4.20;;;;;;;14.04;45.53;92760.03;5014404;28;20041;-89
2022/12/08 01:07:00;;;;;;;6.32;4.10;;;;;;;14.02;45.55;92767.94;5060787;28;20036;-89
2022/12/08 01:09:25;;;;;;;6.30;4.70;;;;;;;14.03;45.58;92758.56;5047379;28;20037;-89
2022/12/08 01:11:51;;;;;;;6.22;4.10;;;;;;;14.03;45.66;92761.25;5027375;28;20412;-89
2022/12/08 01:14:16;;;;;;;5.30;3.88;;;;;;;14.02;45.19;92765.22;4995332;28;20088;-87
2022/12/08 01:16:42;;;;;;;6.25;4.07;;;;;;;14.01;45.55;92766.47;5030197;28;20411;-89
2022/12/08 01:19:08;;;;;;;5.55;4.00;;;;;;;14.01;45.31;92761.03;5036092;28;20056;-89
2022/12/08 01:21:34;;;;;;;5.68;4.40;;;;;;;14.02;45.84;92765.97;5011117;28;20499;-88
2022/12/08 01:24:00;;;;;;;4.32;3.83;;;;;;;14.01;45.44;92761.75;4990526;28;20056;-89
2022/12/08 01:26:25;;;;;;;7.18;4.65;;;;;;;14.00;45.59;92754.09;5008387;28;20274;-89
2022/12/08 01:28:51;;;;;;;8.50;4.93;;;;;;;14.02;45.50;92759.78;5013898;28;20632;-88
2022/12/08 01:31:19;;;;;;;6.13;4.13;;;;;;;14.01;45.63;92767.19;5035352;28;20563;-88
2022/12/08 01:33:45;;;;;;;5.50;3.90;;;;;;;14.01;45.42;92752.88;5049978;28;20106;-88
2022/12/08 01:36:21;;;;;;;5.57;4.18;;;;;;;14.02;45.74;92746.19;5033478;28;20411;-87
2022/12/08 01:38:46;;;;;;;6.25;4.20;;;;;;;13.99;45.44;92742.50;5012906;28;20029;-88
2022/12/08 01:41:17;;;;;;;5.30;3.83;;;;;;;13.98;45.44;92754.59;5026270;28;20401;-89
2022/12/08 01:43:54;;;;;;;;;;;;;;;14.05;45.66;92740.50;5021249;28;20367;-87
2022/12/08 01:46:19;;;;;;;7.25;4.53;;;;;;;14.00;45.54;92735.09;4996610;28;20137;-88
2022/12/08 01:48:44;;;;;;;5.40;4.03;;;;;;;13.98;45.45;92738.28;4990762;28;20050;-87
2022/12/08 01:51:10;;;;;;;5.72;3.95;;;;;;;14.00;45.26;92735.81;5022615;28;20045;-88
2022/12/08 01:53:35;;;;;;;5.88;4.13;;;;;;;14.00;45.29;92726.94;5030267;28;20091;-89
2022/12/08 01:56:05;;;;;;;6.35;4.03;;;;;;;13.99;45.61;92730.88;5027163;28;20049;-87
2022/12/08 01:58:33;;;;;;;6.50;4.33;;;;;;;13.97;45.19;92725.94;4993246;28;20504;-89
2022/12/08 02:00:59;;;;;;;6.93;4.03;;;;;;;13.98;45.60;92718.53;5003055;28;20041;-88
2022/12/08 02:03:27;;;;;;;7.32;4.45;;;;;;;13.99;45.64;92718.03;5045242;28;20037;-88
2022/12/08 02:05:52;;;;;;;5.65;3.88;;;;;;;13.99;45.44;92728.91;5009752;28;20523;-87
2022/12/08 02:08:18;;;;;;;6.90;4.45;;;;;;;13.99;45.23;92715.31;5035560;28;20036;-88
2022/12/08 02:10:48;;;;;;;4.95;3.65;;;;;;;13.98;45.37;92724.72;5036352;28;20041;-88
2022/12/08 02:13:15;;;;;;;4.97;3.67;;;;;;;14.01;45.44;92714.81;5026085;28;20049;-88
2022/12/08 02:15:40;;;;;;;6.22;4.10;;;;;;;14.00;45.49;92718.78;5026455;28;20504;-87
2022/12/08 02:18:27;;;;;;;5.40;3.92;;;;;;;14.00;45.47;92711.38;5025973;28;20041;-88
2022/12/08 02:21:07;;;;;;;5.38;4.03;;;;;;;13.97;45.58;92706.94;5025824;28;20574;-88
2022/12/08 02:23:33;;;;;;;5.70;3.75;;;;;;;13.98;45.15;92710.38;5026115;28;20037;-88
2022/12/08 02:26:41;;;;;;;5.85;4.00;;;;;;;13.99;45.27;92709.88;5026559;28;20045;-88
2022/12/08 02:29:28;;;;;;;5.32;3.70;;;;;;;14.02;45.42;92705.44;5011171;28;20034;-88
2022/12/08 02:31:59;;;;;;;6.65;3.78;;;;;;;13.96;45.71;92708.16;5035501;28;20057;-88
2022/12/08 02:34:40;;;;;;;6.78;4.28;;;;;;;13.96;45.33;92702.72;5027150;28;20152;-88
2022/12/08 02:37:15;;;;;;;5.18;4.10;;;;;;;13.97;45.46;92693.34;5009563;28;20049;-89
2022/12/08 02:39:47;;;;;;;6.93;3.88;;;;;;;13.99;45.45;92690.88;5026885;28;20045;-87
2022/12/08 02:42:25;;;;;;;5.00;3.70;;;;;;;13.96;45.27;92691.13;4991718;28;20056;-88
2022/12/08 02:44:54;;;;;;;4.50;3.38;;;;;;;13.98;45.24;92688.66;5007914;28;20110;-88
2022/12/08 02:47:19;;;;;;;5.93;3.97;;;;;;;13.97;45.35;92681.72;5009198;28;20153;-88
2022/12/08 02:49:45;;;;;;;4.35;3.30;;;;;;;13.97;45.58;92682.47;4995478;28;20065;-88
2022/12/08 02:52:10;;;;;;;5.47;3.60;;;;;;;13.95;45.48;92676.78;5029266;28;20562;-87
2022/12/08 02:54:36;;;;;;;5.93;3.72;;;;;;;13.95;45.76;92668.66;5031032;28;20037;-88
2022/12/08 02:57:11;;;;;;;5.57;3.95;;;;;;;13.97;45.28;92685.19;5026498;28;20042;-87
2022/12/08 03:00:01;;;;;;;6.18;3.50;;;;;;;13.97;45.39;92689.88;4977131;28;20048;-88
2022/12/08 03:02:31;;;;;;;5.75;3.55;;;;;;;13.96;45.22;92685.69;4992797;28;20046;-88
2022/12/08 03:05:23;;;;;;;4.88;3.65;;;;;;;13.96;45.27;92680.25;5029678;28;20041;-89
2022/12/08 03:07:51;;;;;;;5.70;3.72;;;;;;;13.94;45.59;92677.28;5022980;28;20515;-89
2022/12/08 03:10:23;;;;;;;5.35;3.60;;;;;;;13.95;45.55;92674.06;5023507;28;20075;-88
2022/12/08 03:12:49;;;;;;;5.07;3.60;;;;;;;13.95;45.52;92671.38;5032281;28;20045;-89
2022/12/08 03:15:17;;;;;;;5.15;3.50;;;;;;;13.97;45.29;92673.56;5032668;28;20048;-89
2022/12/08 03:17:44;;;;;;;5.40;3.33;;;;;;;13.95;45.46;92676.06;5032616;28;20040;-89
2022/12/08 03:20:12;;;;;;;5.10;3.70;;;;;;;13.97;45.30;92671.59;5013200;28;20041;-88
2022/12/08 03:22:37;;;;;;;5.50;3.70;;;;;;;13.94;45.30;92672.59;5016750;28;20086;-88
2022/12/08 03:25:03;;;;;;;5.13;3.78;;;;;;;13.96;45.29;92653.81;5015693;28;20048;-87
2022/12/08 03:27:28;;;;;;;5.28;3.65;;;;;;;13.96;45.48;92661.22;5015712;28;20037;-89
2022/12/08 03:29:55;;;;;;;6.22;3.38;;;;;;;13.95;45.26;92655.06;4996218;28;20038;-88
2022/12/08 03:32:28;;;;;;;4.70;3.38;;;;;;;13.98;45.18;92656.78;5040482;28;20064;-88
2022/12/08 03:34:53;;;;;;;5.47;3.55;;;;;;;13.93;45.55;92654.06;5037729;28;20434;-89
2022/12/08 03:37:19;;;;;;;5.53;3.50;;;;;;;13.97;45.25;92654.56;5014887;28;20053;-88
2022/12/08 03:39:44;;;;;;;3.80;3.17;;;;;;;13.93;45.20;92649.38;5012807;28;20044;-88
2022/12/08 03:42:10;;;;;;;6.47;3.95;;;;;;;13.93;45.58;92638.50;5012999;28;20411;-88
2022/12/08 03:44:35;;;;;;;6.03;3.63;;;;;;;13.92;45.23;92639.00;4995163;28;20037;-89
2022/12/08 03:47:01;;;;;;;5.88;3.83;;;;;;;13.94;45.14;92634.56;5024645;28;20045;-89
2022/12/08 03:49:26;;;;;;;4.53;3.83;;;;;;;13.92;45.33;92628.88;5028126;28;20045;-88
2022/12/08 03:51:51;;;;;;;5.32;3.58;;;;;;;13.94;45.58;92641.97;5028581;28;20049;-88
2022/12/08 03:54:17;;;;;;;4.03;3.33;;;;;;;13.95;45.27;92640.72;5032080;28;20037;-87
2022/12/08 03:56:42;;;;;;;6.22;3.65;;;;;;;13.96;45.23;92636.78;5025822;28;20052;-88
2022/12/08 03:59:08;;;;;;;5.22;3.33;;;;;;;13.94;45.39;92631.84;5034320;28;20046;-87
2022/12/08 04:01:34;;;;;;;4.95;3.70;;;;;;;13.92;45.33;92634.31;5023226;28;20048;-88
2022/12/08 04:03:59;;;;;;;5.22;3.38;;;;;;;13.91;45.20;92642.97;5032170;28;20033;-88
2022/12/08 04:06:25;;;;;;;5.63;3.60;;;;;;;13.91;44.80;92632.84;5028931;28;20103;-88
2022/12/08 04:08:50;;;;;;;5.03;3.40;;;;;;;13.90;45.46;92642.22;5043289;28;20483;-88
2022/12/08 04:11:16;;;;;;;4.30;3.25;;;;;;;13.91;45.05;92632.09;5042886;28;20450;-88
2022/12/08 04:13:41;;;;;;;6.55;3.90;;;;;;;13.93;45.26;92627.66;5031578;28;20570;-88
2022/12/08 04:16:07;;;;;;;5.47;3.35;;;;;;;13.91;45.28;92629.38;5000878;28;20049;-89
2022/12/08 04:18:33;;;;;;;4.72;3.25;;;;;;;13.91;45.09;92624.69;5000738;28;20438;-88
2022/12/08 04:20:58;;;;;;;3.78;2.92;;;;;;;13.93;45.24;92624.94;5030927;28;20071;-87
2022/12/08 04:23:24;;;;;;;5.03;3.35;;;;;;;13.93;45.25;92630.38;5030774;28;20519;-88
2022/12/08 04:25:52;;;;;;;4.38;3.35;;;;;;;13.95;45.33;92627.88;5031475;28;20045;-90
2022/12/08 04:28:18;;;;;;;6.07;3.83;;;;;;;13.90;45.36;92625.94;5030996;28;20041;-87
2022/12/08 04:30:43;;;;;;;4.93;3.35;;;;;;;13.89;45.37;92632.59;4994899;28;20098;-89
2022/12/08 04:33:09;;;;;;;4.97;3.30;;;;;;;13.92;45.23;92628.16;5019985;28;20249;-87
2022/12/08 04:35:34;;;;;;;4.53;3.33;;;;;;;13.92;45.47;92630.88;5042462;28;20083;-88
2022/12/08 04:37:59;;;;;;;5.05;3.78;;;;;;;13.91;45.43;92627.41;5044346;28;20032;-89
2022/12/08 04:40:25;;;;;;;4.53;3.22;;;;;;;13.90;45.47;92622.47;5033590;28;20033;-89
2022/12/08 04:42:50;;;;;;;4.82;3.15;;;;;;;13.92;45.51;92622.72;5014911;28;20045;-88
2022/12/08 04:45:16;;;;;;;5.00;3.42;;;;;;;13.91;45.17;92619.25;5013484;28;20090;-88
2022/12/08 04:47:41;;;;;;;4.75;3.40;;;;;;;13.89;45.54;92619.00;5031205;28;20045;-88
2022/12/08 04:50:07;;;;;;;3.67;2.83;;;;;;;13.93;45.39;92622.22;5030297;28;20086;-89
2022/12/08 04:52:32;;;;;;;4.65;3.30;;;;;;;13.90;45.23;92617.03;5010836;28;20037;-88
2022/12/08 04:54:58;;;;;;;3.80;2.80;;;;;;;13.90;45.26;92625.94;4991829;28;20034;-88
2022/12/08 04:57:23;;;;;;;6.05;3.80;;;;;;;13.92;45.35;92617.28;5025619;28;20040;-88
2022/12/08 04:59:48;;;;;;;4.38;3.05;;;;;;;13.93;45.07;92616.03;5050671;28;20631;-88
2022/12/08 05:02:14;;;;;;;5.22;3.30;;;;;;;13.93;45.35;92613.31;5018531;28;20093;-89
2022/12/08 05:04:39;;;;;;;4.63;2.80;;;;;;;13.92;45.66;92617.28;5012530;28;20035;-88
2022/12/08 05:07:05;;;;;;;4.57;3.20;;;;;;;13.90;45.12;92609.63;5024832;28;20045;-88
2022/12/08 05:09:30;;;;;;;4.65;3.38;;;;;;;13.91;45.06;92610.38;5029253;28;20088;-89
2022/12/08 05:11:55;;;;;;;4.50;3.40;;;;;;;13.90;45.41;92612.34;5021773;28;20502;-88
2022/12/08 05:14:21;;;;;;;5.32;3.45;;;;;;;13.91;45.17;92608.38;5028544;28;20045;-88
2022/12/08 05:16:46;;;;;;;3.95;3.40;;;;;;;13.90;45.22;92612.34;5009119;28;20042;-88
2022/12/08 05:19:12;;;;;;;4.88;3.10;;;;;;;13.88;45.07;92617.53;5006537;28;20041;-88
2022/12/08 05:21:37;;;;;;;4.10;3.15;;;;;;;13.90;45.07;92611.59;5039975;28;20041;-89
2022/12/08 05:24:04;;;;;;;7.47;3.63;;;;;;;13.90;45.21;92612.34;5009470;28;20234;-88
2022/12/08 05:26:29;;;;;;;3.78;2.78;;;;;;;13.90;45.30;92614.31;5028048;28;20041;-88
2022/12/08 05:28:55;;;;;;;4.43;3.20;;;;;;;13.90;45.01;92614.31;5012055;28;20092;-88
2022/12/08 05:31:20;;;;;;;4.00;2.92;;;;;;;13.92;45.16;92609.13;5028489;28;20124;-88
2022/12/08 05:33:46;;;;;;;3.58;2.92;;;;;;;13.93;45.28;92613.31;5018941;28;20040;-89
2022/12/08 05:36:12;;;;;;;3.95;2.97;;;;;;;13.96;45.16;92615.03;5029328;28;20053;-87
2022/12/08 05:38:38;;;;;;;5.90;3.28;;;;;;;13.90;45.33;92609.63;5013711;28;20031;-88
2022/12/08 05:41:05;;;;;;;5.13;3.33;;;;;;;13.90;44.96;92608.88;5029240;28;20041;-88
2022/12/08 05:43:30;;;;;;;3.65;2.80;;;;;;;13.93;45.32;92605.16;5029953;28;20098;-89
2022/12/08 05:45:56;;;;;;;4.03;3.00;;;;;;;13.91;45.07;92604.94;5029742;28;20381;-88
2022/12/08 05:48:21;;;;;;;3.75;2.75;;;;;;;13.92;45.19;92603.69;5025977;28;20231;-89
2022/12/08 05:50:47;;;;;;;4.43;2.80;;;;;;;13.90;45.01;92596.03;5010493;28;20107;-88
2022/12/08 05:53:13;;;;;;;3.13;2.72;;;;;;;13.92;44.99;92603.69;5044834;28;20455;-88
2022/12/08 05:55:39;;;;;;;3.08;2.22;;;;;;;13.88;45.65;92603.22;5031671;28;20116;-88
2022/12/08 05:58:05;;;;;;;3.03;2.40;;;;;;;13.89;45.34;92608.16;5016985;28;20037;-88
2022/12/08 06:00:33;;;;;;;3.45;2.53;;;;;;;13.89;45.09;92604.69;5030000;28;20033;-88
2022/12/08 06:02:59;;;;;;;4.40;2.80;;;;;;;13.92;44.71;92599.00;5029637;28;20041;-88
2022/12/08 06:05:24;;;;;;;3.53;2.53;;;;;;;13.92;45.16;92600.97;5029428;28;20029;-89
2022/12/08 06:07:49;;;;;;;4.45;3.05;;;;;;;13.95;44.86;92602.69;5038836;28;20407;-88
2022/12/08 06:10:15;;;;;;;4.43;3.20;;;;;;;13.92;44.96;92604.44;5048307;28;20048;-87
2022/12/08 06:12:40;;;;;;;3.58;2.50;;;;;;;13.90;45.17;92596.03;5035961;28;20110;-88
2022/12/08 06:15:06;;;;;;;3.63;2.75;;;;;;;13.91;44.77;92600.25;5013028;28;20029;-89
2022/12/08 06:17:31;;;;;;;4.15;2.60;;;;;;;13.93;45.32;92597.75;5026196;28;20381;-89
2022/12/08 06:19:57;;;;;;;3.38;2.60;;;;;;;13.93;44.89;92586.16;5010392;28;20091;-88
2022/12/08 06:22:22;;;;;;;4.40;2.72;;;;;;;13.96;44.87;92591.31;5028662;28;20049;-88
2022/12/08 06:24:48;;;;;;;3.45;2.50;;;;;;;13.99;44.75;92597.75;5032299;28;20110;-87
2022/12/08 06:27:13;;;;;;;3.60;2.28;;;;;;;13.99;45.29;92592.31;5050311;28;20049;-89
2022/12/08 06:29:38;;;;;;;2.90;2.15;;;;;;;13.97;44.70;92597.50;5017727;28;20037;-89
2022/12/08 06:32:04;;;;;;;2.92;2.38;;;;;;;13.99;44.92;92595.03;5032951;28;20062;-88
2022/12/08 06:34:29;;;;;;;4.07;3.35;;;;;;;13.97;44.63;92595.53;5013011;28;20447;-88
2022/12/08 06:36:55;;;;;;;3.65;2.70;;;;;;;13.99;44.81;92598.47;5003423;28;20048;-88
2022/12/08 06:39:20;;;;;;;3.33;2.50;;;;;;;13.98;44.77;92597.00;5049336;28;20041;-88
2022/12/08 06:44:30;;;;;;;2.78;2.17;;;;;;;13.98;44.77;92593.53;5045548;28;20048;-87
2022/12/08 06:46:55;;;;;;;2.55;1.90;;;;;;;13.95;44.62;92602.69;5064630;28;20032;-89
2022/12/08 06:49:20;;;;;;;4.45;2.50;;;;;;;13.95;45.05;92592.56;5032612;28;20555;-88
2022/12/08 06:51:46;;;;;;;6.82;2.63;;;;;;;13.96;44.75;92598.75;5033432;28;20041;-88
2022/12/08 06:54:11;;;;;;;4.22;2.53;;;;;;;13.95;44.61;92605.41;5032549;28;20041;-87
2022/12/08 06:56:36;;;;;;;3.47;2.47;;;;;;;13.98;45.08;92604.41;5032618;28;20056;-88
2022/12/08 06:59:02;;;;;;;3.28;2.60;;;;;;;13.97;44.98;92598.25;5030152;28;20037;-87
2022/12/08 07:01:28;;;;;;;4.03;2.70;;;;;;;13.98;44.80;92597.00;5013304;28;20136;-88
2022/12/08 07:03:53;;;;;;;3.03;2.15;;;;;;;14.00;44.85;92601.94;5032562;28;20473;-88
2022/12/08 07:06:21;;;;;;;3.08;2.42;;;;;;;13.99;44.54;92600.47;5048862;28;20589;-89
2022/12/08 07:08:46;;;;;;;3.95;1.90;;;;;;;13.99;44.78;92614.03;5021918;28;20136;-89
2022/12/08 07:11:12;;;;;;;3.17;2.50;;;;;;;13.99;44.94;92605.91;5031776;28;20460;-88
2022/12/08 07:13:37;;;;;;;3.47;2.30;;;;;;;14.00;44.52;92604.66;5046068;28;20048;-88
2022/12/08 07:16:07;;;;;;;2.85;2.30;;;;;;;13.97;44.41;92605.66;5012783;28;20041;-88
2022/12/08 07:18:32;;;;;;;3.08;2.10;;;;;;;13.95;44.60;92608.13;5046500;28;20037;-88
2022/12/08 07:21:04;;;;;;;3.88;2.35;;;;;;;13.95;44.65;92602.69;5051718;28;20126;-89
2022/12/08 07:23:29;;;;;;;2.80;2.13;;;;;;;13.94;44.88;92599.25;5032660;28;20037;-89
2022/12/08 07:25:55;;;;;;;2.90;1.77;;;;;;;13.93;44.68;92599.75;5012810;28;20041;-90
2022/12/08 07:28:20;;;;;;;3.97;3.05;;;;;;;13.98;44.61;92599.72;5043407;28;20447;-88
2022/12/08 07:30:46;;;;;;;3.60;2.63;;;;;;;13.98;44.54;92609.84;5049650;28;20029;-89
2022/12/08 07:33:11;;;;;;;3.72;2.20;;;;;;;13.97;44.55;92605.66;5046177;28;20041;-88
2022/12/08 07:35:36;;;;;;;2.97;2.00;;;;;;;13.97;45.17;92600.22;5064547;28;20411;-88
2022/12/08 07:38:02;;;;;;;3.50;2.42;;;;;;;13.98;44.34;92601.69;5029213;28;20044;-89
2022/12/08 07:40:27;;;;;;;3.95;2.40;;;;;;;13.99;45.08;92601.19;5029084;28;20045;-89
2022/12/08 07:42:53;;;;;;;3.17;2.10;;;;;;;14.03;44.51;92603.66;5019533;28;20304;-88
2022/12/08 07:45:18;;;;;;;3.08;1.77;;;;;;;14.03;44.72;92601.69;5036300;28;20044;-89
2022/12/08 07:47:43;;;;;;;4.40;2.25;;;;;;;14.02;45.25;92602.91;5044900;28;20168;-90
2022/12/08 07:50:09;;;;;;;3.13;2.60;;;;;;;14.05;44.56;92604.63;5016029;28;20029;-91
2022/12/08 07:52:34;;;;;;;3.03;1.98;;;;;;;14.03;44.53;92600.94;5049630;28;20044;-91
2022/12/08 07:55:00;;;;;;;3.05;2.22;;;;;;;14.01;44.98;92606.88;5016159;28;20106;-90
2022/12/08 07:57:25;;;;;;;3.30;2.13;;;;;;;14.01;44.81;92601.44;5020375;28;20029;-90
2022/12/08 07:59:50;;;;;;;3.72;2.40;;;;;;;14.02;44.13;92597.47;5046733;28;20041;-91
2022/12/08 08:02:17;;;;;;;5.05;2.42;;;;;;;14.04;44.57;92595.00;5031518;28;20033;-91
2022/12/08 08:04:42;;;;;;;4.53;2.90;;;;;;;14.01;44.45;92606.13;5033145;28;20037;-89
2022/12/08 08:07:08;;;;;;;4.25;3.00;;;;;;;14.03;44.88;92601.69;5031796;28;20120;-90
2022/12/08 08:09:33;;;;;;;3.20;2.30;;;;;;;14.02;44.57;92602.19;5047236;28;20040;-90
2022/12/08 08:11:58;;;;;;;3.20;2.25;;;;;;;14.03;45.33;92593.53;5049249;28;20041;-91
2022/12/08 08:14:24;;;;;;;4.90;2.85;;;;;;;14.01;44.82;92595.25;5048993;28;20048;-92
2022/12/08 08:16:49;;;;;;;6.07;2.90;;;;;;;14.03;44.32;92593.53;5048738;28;20041;-91
2022/12/08 08:19:15;;;;;;;5.20;3.28;;;;;;;14.02;44.56;92596.75;5028329;28;20041;-90
2022/12/08 08:21:40;;;;;;;4.38;2.83;;;;;;;14.02;44.46;92594.03;5060292;28;20038;-89
2022/12/08 08:24:05;;;;;;;3.85;2.60;;;;;;;14.03;45.15;92590.81;5046061;28;20045;-90
2022/12/08 08:26:31;;;;;;;6.60;2.95;;;;;;;14.07;45.05;92604.13;5031790;28;20032;-89
2022/12/08 08:28:56;;;;;;;3.53;2.60;;;;;;;14.06;45.31;92600.69;5048723;28;20036;-89
2022/12/08 08:31:25;;;;;;;3.85;2.75;;;;;;;14.09;44.97;92598.91;5043854;28;20095;-88
2022/12/08 08:33:51;;;;;;;2.92;2.40;;;;;;;14.10;45.46;92607.81;5043324;28;20072;-91
2022/12/08 08:36:16;;;;;;;4.40;3.30;;;;;;;14.11;45.03;92601.13;5031531;28;20491;-90
2022/12/08 08:38:43;;;;;;;3.95;2.47;;;;;;;14.10;44.83;92605.81;5027485;28;20495;-89
2022/12/08 08:41:10;;;;;;;5.55;3.03;;;;;;;14.08;45.23;92603.59;5038201;28;20040;-89
2022/12/08 08:43:35;;;;;;;9.20;2.30;;;;;;;14.08;44.78;92600.88;5030897;28;20404;-90
2022/12/08 08:46:01;;;;;;;4.43;3.17;;;;;;;14.08;44.78;92592.75;5036070;28;20040;-89
2022/12/08 08:48:27;;;;;;;6.30;3.13;;;;;;;14.08;44.69;92600.88;5029930;28;20041;-89
2022/12/08 08:50:53;;;;;;;3.85;2.33;;;;;;;14.13;44.98;92602.09;5044918;28;20559;-88
2022/12/08 08:53:18;;;;;;;6.15;3.90;;;;;;;14.13;44.64;92604.81;5036967;28;20041;-89
2022/12/08 08:55:43;;;;;;;4.18;2.80;;;;;;;14.14;44.90;92603.59;5030721;28;20037;-88
2022/12/08 08:58:09;;;;;;;4.72;2.60;;;;;;;14.13;44.58;92607.53;5043844;28;20034;-88
2022/12/08 09:00:34;;;;;;;3.50;2.75;;;;;;;14.14;44.50;92603.59;5045578;28;20041;-90
2022/12/08 09:02:59;;;;;;;4.32;2.65;;;;;;;14.14;45.23;92606.31;5027692;28;20145;-91
2022/12/08 09:05:25;;;;;;;4.10;2.50;;;;;;;14.13;45.01;92607.53;5011056;28;20377;-89
2022/12/08 09:07:50;;;;;;;4.88;2.92;;;;;;;14.16;44.87;92605.81;5031799;28;21234;-88
2022/12/08 09:10:16;;;;;;;4.80;2.65;;;;;;;14.17;44.86;92613.47;5044312;28;20038;-89
2022/12/08 09:12:41;;;;;;;3.08;2.28;;;;;;;14.18;45.09;92608.75;5041449;28;20440;-91
2022/12/08 09:15:07;;;;;;;4.10;2.92;;;;;;;14.20;45.40;92606.28;5010915;28;20504;-90
2022/12/08 09:17:32;;;;;;;2.85;2.15;;;;;;;14.18;44.65;92614.19;5013027;28;20551;-89
2022/12/08 09:19:58;;;;;;;4.22;2.63;;;;;;;14.19;45.00;92610.97;5047620;28;20411;-92
2022/12/08 09:22:26;;;;;;;3.35;2.30;;;;;;;14.20;44.74;92611.72;5027329;28;20038;-90
2022/12/08 09:24:51;;;;;;;4.72;3.13;;;;;;;14.20;44.61;92611.72;5030800;28;20055;-90
2022/12/08 09:27:17;;;;;;;4.45;2.65;;;;;;;14.17;44.59;92605.31;5030464;28;20048;-91
2022/12/08 09:29:42;;;;;;;3.78;2.55;;;;;;;14.19;44.76;92599.38;5011233;28;20389;-90
2022/12/08 09:32:08;;;;;;;7.95;2.75;;;;;;;14.20;44.54;92609.75;5035340;28;20079;-89
2022/12/08 09:34:33;;;;;;;5.70;2.42;;;;;;;14.21;44.60;92594.16;5038888;28;20028;-90
2022/12/08 09:36:58;;;;;;;6.68;2.90;;;;;;;14.21;44.39;92591.44;5044233;28;20033;-90
2022/12/08 09:39:24;;;;;;;7.57;3.40;;;;;;;14.21;45.04;92588.72;5013426;28;20037;-91
2022/12/08 09:41:51;;;;;;;10.95;4.30;;;;;;;14.22;44.49;92590.22;5011309;28;20510;-90
2022/12/08 09:44:41;;;;;;;8.82;5.03;;;;;;;14.23;44.55;92581.56;5010292;28;20029;-91
2022/12/08 09:47:24;;;;;;;20.05;7.28;;;;;;;14.24;45.08;92583.03;5040781;28;20037;-91
2022/12/08 09:50:01;;;;;;;16.48;8.35;;;;;;;14.24;44.79;92569.44;5031042;28;20079;-90
2022/12/08 09:52:32;;;;;;;22.65;10.73;;;;;;;14.26;45.46;92572.41;5026308;28;20065;-91
2022/12/08 09:54:59;;;;;;;26.90;11.88;;;;;;;14.26;45.10;92569.69;5003556;28;20033;-89
2022/12/08 09:57:24;;;;;;;28.75;14.20;;;;;;;14.24;44.76;92574.88;5030637;28;20621;-89
2022/12/08 09:59:56;;;;;;;38.63;19.15;;;;;;;14.22;44.47;92568.47;5026060;28;20034;-91
2022/12/08 10:02:24;;;;;;;43.72;19.58;;;;;;;14.21;44.76;92564.28;5018244;28;20400;-90
2022/12/08 10:04:49;;;;;;;48.50;20.95;;;;;;;14.20;44.73;92558.09;5047428;28;20037;-90
2022/12/08 10:07:42;;;;;;;43.90;22.98;;;;;;;14.22;44.77;92560.31;5046001;28;20032;-90
2022/12/08 10:10:19;;;;;;;54.40;24.35;;;;;;;14.21;44.72;92564.28;5048562;28;20048;-90
2022/12/08 10:13:05;;;;;;;54.58;25.60;;;;;;;14.19;44.89;92553.91;5056337;28;20057;-90
2022/12/08 10:15:42;;;;;;;55.60;24.92;;;;;;;14.21;44.63;92556.84;5029670;28;20044;-90
2022/12/08 10:18:14;;;;;;;66.38;28.17;;;;;;;14.21;44.90;92556.13;5044712;28;20049;-88
2022/12/08 10:20:41;;;;;;;76.70;34.92;;;;;;;14.20;44.79;92547.22;5048128;28;20095;-92
2022/12/08 10:23:14;;;;;;;53.67;27.70;;;;;;;14.22;45.22;92539.31;5049406;28;20052;-91
2022/12/08 10:25:52;;;;;;;60.33;28.58;;;;;;;14.26;44.69;92539.78;5047290;28;20069;-89
2022/12/08 10:28:18;;;;;;;65.00;27.13;;;;;;;14.26;44.68;92539.03;5046544;28;20045;-89
2022/12/08 10:30:43;;;;;;;62.47;30.42;;;;;;;14.24;44.72;92538.81;5013663;28;20041;-89
2022/12/08 10:33:13;;;;;;;60.70;29.92;;;;;;;14.24;44.78;92533.38;5010055;28;20373;-89
2022/12/08 10:35:43;;;;;;;63.80;27.60;;;;;;;14.22;44.79;92533.88;5021497;28;20034;-91
2022/12/08 10:38:31;;;;;;;77.82;34.42;;;;;;;14.23;45.00;92532.63;5013527;28;20728;-91
2022/12/08 10:41:06;;;;;;;59.80;29.98;;;;;;;14.22;44.84;92527.69;5016088;28;20037;-89
2022/12/08 10:43:31;;;;;;;59.38;27.77;;;;;;;14.22;45.04;92527.69;5011372;28;20113;-89
2022/12/08 10:46:16;;;;;;;91.32;35.20;;;;;;;14.24;44.99;92531.38;5006849;28;20396;-89
2022/12/08 10:48:48;;;;;;;69.28;32.17;;;;;;;14.28;44.96;92528.41;5025105;28;20500;-93
2022/12/08 10:51:36;;;;;;;52.90;26.48;;;;;;;14.27;45.20;92521.50;5027122;28;20042;-91
2022/12/08 10:54:02;;;;;;;78.72;33.78;;;;;;;14.26;44.55;92512.59;5014980;28;20116;-89
2022/12/08 10:56:28;;;;;;;61.00;32.47;;;;;;;14.28;44.79;92507.41;5045726;28;20029;-92
2022/12/08 10:59:13;;;;;;;66.50;32.03;;;;;;;14.28;44.61;92504.66;5046366;28;20057;-90
2022/12/08 11:01:39;;;;;;;60.10;31.20;;;;;;;14.29;45.10;92508.13;5030774;28;20061;-90
2022/12/08 11:04:10;;;;;;;72.22;30.60;;;;;;;14.28;45.05;92501.94;5030095;28;20079;-89
2022/12/08 11:06:37;;;;;;;85.32;37.42;;;;;;;14.26;45.10;92499.00;5013807;28;20029;-89
2022/12/08 11:09:16;;;;;;;86.65;40.83;;;;;;;14.25;44.72;92499.50;5026544;28;20049;-90
2022/12/08 11:11:50;;;;;;;98.03;44.60;;;;;;;14.26;44.71;92499.00;5035681;28;20052;-89
2022/12/08 11:14:21;;;;;;;95.03;40.60;;;;;;;14.26;44.83;92493.56;5012894;28;20052;-90
2022/12/08 11:16:47;;;;;;;107.70;49.47;;;;;;;14.25;44.99;92489.38;4997761;28;20060;-90
2022/12/08 11:19:16;;;;;;;98.97;47.67;;;;;;;14.25;45.04;92481.22;5016767;28;20045;-91
2022/12/08 11:21:42;;;;;;;78.82;40.65;;;;;;;14.24;45.20;92481.72;5016900;28;20045;-90
2022/12/08 11:24:13;;;;;;;120.53;53.00;;;;;;;14.25;44.75;92472.31;5032358;28;20384;-90
2022/12/08 11:26:38;;;;;;;89.13;42.65;;;;;;;14.25;44.66;92480.47;5071048;28;20037;-90
2022/12/08 11:29:04;;;;;;;111.53;51.08;;;;;;;14.25;45.15;92475.78;5031682;28;20064;-90
2022/12/08 11:31:40;;;;;;;103.43;48.67;;;;;;;14.25;45.09;92473.06;5013873;28;20033;-89
2022/12/08 11:34:05;;;;;;;99.10;49.30;;;;;;;14.25;44.72;92478.50;5013526;28;20049;-91
2022/12/08 11:36:31;;;;;;;122.00;57.85;;;;;;;14.26;44.83;92476.53;5029284;28;20025;-92
2022/12/08 11:38:58;;;;;;;107.75;52.40;;;;;;;14.27;44.81;92475.28;5013542;28;20478;-91
2022/12/08 11:41:30;;;;;;;137.55;68.03;;;;;;;14.26;45.05;92473.81;5016554;28;20044;-92